Time;durP1;ratioP1;P1;durP2;ratioP2;P2;SDS_P1;SDS_P2;PMS_P1;PMS_P2;Temp;Humidity;BMP_temperature;BMP_pressure;BME280_temperature;BME280_humidity;BME280_pressure;Samples;Min_cycle;Max_cycle;Signal;HPM_P1;HPM_P2
2022/04/18 03:30:34;;;;;;;;;;;6.50;58.60;;;;;;4979884;28;83349;-49
2022/04/18 03:33:00;;;;;;;;;;;6.40;58.70;;;;;;4967849;28;83284;-50
2022/04/18 03:35:27;;;;;;;;;;;6.40;58.70;;;;;;4970588;28;82095;-49
2022/04/18 03:40:36;;;;;;;;;;;6.50;58.70;;;;;;4970229;28;81911;-50
2022/04/18 03:43:03;;;;;;;;;;;6.50;58.70;;;;;;4969666;28;82832;-50
2022/04/18 03:45:28;;;;;;;;;;;6.40;58.70;;;;;;4969798;28;82813;-49
2022/04/18 03:47:55;;;;;;;;;;;6.40;58.60;;;;;;4972573;28;82057;-49
2022/04/18 03:50:20;;;;;;;;;;;6.40;58.70;;;;;;4969868;28;82385;-49
2022/04/18 03:52:46;;;;;;;;;;;6.40;58.70;;;;;;4969771;28;81912;-50
2022/04/18 03:55:12;;;;;;;;;;;6.40;58.60;;;;;;4969899;28;82882;-49
2022/04/18 03:57:38;;;;;;;;;;;6.40;58.60;;;;;;4969745;28;82690;-50
2022/04/18 04:00:06;;;;;;;;;;;6.40;58.60;;;;;;4970362;28;81129;-50
2022/04/18 04:02:31;;;;;;;;;;;6.30;58.60;;;;;;4973277;28;81883;-49
2022/04/18 04:04:57;;;;;;;;;;;6.40;58.70;;;;;;4973241;28;82362;-50
2022/04/18 04:07:23;;;;;;;;;;;6.40;58.80;;;;;;4972490;28;83180;-49
2022/04/18 04:09:48;;;;;;;;;;;6.30;58.70;;;;;;4975827;28;81823;-50
2022/04/18 04:12:21;;;;;;;;;;;6.30;58.70;;;;;;4973019;28;81760;-50
2022/04/18 04:14:50;;;;;;;;;;;6.30;58.70;;;;;;4973143;28;82958;-49
2022/04/18 04:17:15;;;;;;;;;;;6.20;58.80;;;;;;4972714;28;83571;-49
2022/04/18 04:19:41;;;;;;;;;;;6.20;58.80;;;;;;4973322;28;81902;-50
2022/04/18 04:22:07;;;;;;;;;;;6.30;58.80;;;;;;4973279;28;81827;-50
2022/04/18 04:24:32;;;;;;;;;;;6.30;58.80;;;;;;4973480;28;81743;-50
2022/04/18 04:26:58;;;;;;;;;;;6.20;58.90;;;;;;4973228;28;81745;-49
2022/04/18 04:29:23;;;;;;;;;;;6.30;58.80;;;;;;4972766;28;82754;-49
2022/04/18 04:31:49;;;;;;;;;;;6.20;58.90;;;;;;4986866;28;84427;-49
2022/04/18 04:34:16;;;;;;;;;;;6.30;58.80;;;;;;4992480;28;83899;-49
2022/04/18 04:36:42;;;;;;;;;;;6.20;58.90;;;;;;4992212;28;83172;-50
2022/04/18 04:39:08;;;;;;;;;;;6.30;58.90;;;;;;4974821;28;81929;-50
2022/04/18 04:41:33;;;;;;;;;;;6.20;58.90;;;;;;4992342;28;82150;-49
2022/04/18 04:43:59;;;;;;;;;;;6.20;58.90;;;;;;4992116;28;82679;-49
2022/04/18 04:46:25;;;;;;;;;;;6.20;58.90;;;;;;4992214;28;82406;-49
2022/04/18 04:48:50;;;;;;;;;;;6.20;58.90;;;;;;4992773;28;82048;-49
2022/04/18 04:51:16;;;;;;;;;;;6.30;58.80;;;;;;4991920;28;83403;-50
2022/04/18 04:53:42;;;;;;;;;;;6.30;58.80;;;;;;4994851;28;82130;-49
2022/04/18 04:56:07;;;;;;;;;;;6.20;58.90;;;;;;4991302;28;84491;-49
2022/04/18 04:58:33;;;;;;;;;;;6.20;59.00;;;;;;4992239;28;81957;-49
2022/04/18 05:00:58;;;;;;;;;;;6.20;59.10;;;;;;4992337;28;81871;-49
2022/04/18 05:03:24;;;;;;;;;;;6.10;59.10;;;;;;4991980;28;82429;-51
2022/04/18 05:05:50;;;;;;;;;;;6.10;59.20;;;;;;4991936;28;81875;-50
2022/04/18 05:08:16;;;;;;;;;;;6.20;59.10;;;;;;4991877;28;83721;-49
2022/04/18 05:10:41;;;;;;;;;;;6.10;59.10;;;;;;4991892;28;82591;-49
2022/04/18 05:13:07;;;;;;;;;;;6.10;59.30;;;;;;4991856;28;81127;-49
2022/04/18 05:15:33;;;;;;;;;;;6.10;59.20;;;;;;4994564;28;81824;-49
2022/04/18 05:17:59;;;;;;;;;;;6.10;59.30;;;;;;4991713;28;81871;-49
2022/04/18 05:20:25;;;;;;;;;;;6.10;59.40;;;;;;4991341;28;82771;-49
2022/04/18 05:22:50;;;;;;;;;;;6.10;59.40;;;;;;4991374;28;83488;-49
2022/04/18 05:25:16;;;;;;;;;;;6.10;59.60;;;;;;4991927;28;81969;-49
2022/04/18 05:27:42;;;;;;;;;;;6.10;59.50;;;;;;4991508;28;81982;-50
2022/04/18 05:30:08;;;;;;;;;;;6.10;59.40;;;;;;4991267;28;83511;-50
2022/04/18 05:32:34;;;;;;;;;;;6.10;59.40;;;;;;4991141;28;82058;-49
2022/04/18 05:34:59;;;;;;;;;;;6.10;59.40;;;;;;4991861;28;81786;-49
2022/04/18 05:37:26;;;;;;;;;;;6.10;59.50;;;;;;4994324;28;82791;-49
2022/04/18 05:39:51;;;;;;;;;;;6.10;59.60;;;;;;4991450;28;81883;-49
2022/04/18 05:42:17;;;;;;;;;;;6.10;59.50;;;;;;4991037;28;83426;-49
2022/04/18 05:44:43;;;;;;;;;;;6.10;59.60;;;;;;4990651;28;82930;-49
2022/04/18 05:47:08;;;;;;;;;;;6.10;59.40;;;;;;4991129;28;82913;-50
2022/04/18 05:49:34;;;;;;;;;;;6.20;59.40;;;;;;4991125;28;83620;-49
2022/04/18 05:52:00;;;;;;;;;;;6.10;59.30;;;;;;4991007;28;82044;-52
2022/04/18 05:54:25;;;;;;;;;;;6.10;59.50;;;;;;4990731;28;82942;-50
2022/04/18 05:56:51;;;;;;;;;;;6.20;59.40;;;;;;4993454;28;82769;-50
2022/04/18 05:59:16;;;;;;;;;;;6.10;59.40;;;;;;4990449;28;83006;-50
2022/04/18 06:01:42;;;;;;;;;;;6.10;59.60;;;;;;4990998;28;82615;-49
2022/04/18 06:04:07;;;;;;;;;;;6.10;59.50;;;;;;4990463;28;81901;-53
2022/04/18 06:06:33;;;;;;;;;;;6.20;59.40;;;;;;4990418;28;82908;-50
2022/04/18 06:08:58;;;;;;;;;;;6.20;59.30;;;;;;4989448;28;84380;-50
2022/04/18 06:11:24;;;;;;;;;;;6.10;59.60;;;;;;4990178;28;81824;-51
2022/04/18 06:13:49;;;;;;;;;;;6.10;59.80;;;;;;4990749;28;82283;-50
2022/04/18 06:16:15;;;;;;;;;;;6.10;59.70;;;;;;4990174;28;83434;-50
2022/04/18 06:18:40;;;;;;;;;;;6.10;59.80;;;;;;4993478;28;81801;-50
2022/04/18 06:21:06;;;;;;;;;;;6.10;60.10;;;;;;4990240;28;82402;-50
2022/04/18 06:23:32;;;;;;;;;;;6.00;60.10;;;;;;4990536;28;81887;-49
2022/04/18 06:25:57;;;;;;;;;;;6.10;59.80;;;;;;4990940;28;80955;-50
2022/04/18 06:28:23;;;;;;;;;;;6.10;59.80;;;;;;4990073;28;83061;-50
2022/04/18 06:30:48;;;;;;;;;;;6.10;59.90;;;;;;4989630;28;81836;-49
2022/04/18 06:33:14;;;;;;;;;;;6.10;60.00;;;;;;4989363;28;82959;-50
2022/04/18 06:35:41;;;;;;;;;;;6.10;60.00;;;;;;4990013;28;81787;-49
2022/04/18 06:38:07;;;;;;;;;;;6.10;60.10;;;;;;4989934;28;81896;-50
2022/04/18 06:40:33;;;;;;;;;;;6.10;60.30;;;;;;4992782;28;83041;-50
2022/04/18 06:42:59;;;;;;;;;;;6.10;60.50;;;;;;4990027;28;81842;-50
2022/04/18 06:45:25;;;;;;;;;;;6.10;60.20;;;;;;4989767;28;82670;-50
2022/04/18 06:47:50;;;;;;;;;;;6.10;60.10;;;;;;4986299;28;87958;-50
2022/04/18 06:50:16;;;;;;;;;;;6.10;60.70;;;;;;4986851;28;86151;-50
2022/04/18 06:52:42;;;;;;;;;;;6.10;60.30;;;;;;4986498;28;87482;-50
2022/04/18 06:55:08;;;;;;;;;;;6.00;60.50;;;;;;4986344;28;88460;-50
2022/04/18 06:57:35;;;;;;;;;;;6.10;60.50;;;;;;4986042;28;88244;-49
2022/04/18 07:00:01;;;;;;;;;;;6.10;60.70;;;;;;4986519;28;87666;-49
2022/04/18 07:02:26;;;;;;;;;;;6.10;60.50;;;;;;4988844;28;87404;-50
2022/04/18 07:04:53;;;;;;;;;;;6.10;60.30;;;;;;4986612;28;87183;-50
2022/04/18 07:07:19;;;;;;;;;;;6.10;60.20;;;;;;4985855;28;88660;-49
2022/04/18 07:09:44;;;;;;;;;;;6.10;60.50;;;;;;4986185;28;86857;-50
2022/04/18 07:12:10;;;;;;;;;;;6.10;60.50;;;;;;4986086;28;87814;-50
2022/04/18 07:14:36;;;;;;;;;;;6.10;60.50;;;;;;4986659;28;86118;-49
2022/04/18 07:17:02;;;;;;;;;;;6.10;60.30;;;;;;4986268;28;86876;-50
2022/04/18 07:19:31;;;;;;;;;;;6.20;60.40;;;;;;4986031;28;87023;-49
2022/04/18 07:21:57;;;;;;;;;;;6.20;60.30;;;;;;4985065;28;89553;-49
2022/04/18 07:24:23;;;;;;;;;;;6.20;60.30;;;;;;4989138;28;86882;-50
2022/04/18 07:26:49;;;;;;;;;;;6.10;60.40;;;;;;4985819;28;87399;-50
2022/04/18 07:29:14;;;;;;;;;;;6.10;60.60;;;;;;4985933;28;86841;-50
2022/04/18 07:31:40;;;;;;;;;;;6.20;60.50;;;;;;4985141;28;87797;-49
2022/04/18 07:34:06;;;;;;;;;;;6.20;60.50;;;;;;4985678;28;88485;-49
2022/04/18 07:36:31;;;;;;;;;;;6.10;60.70;;;;;;4985851;28;87221;-49
2022/04/18 07:38:57;;;;;;;;;;;6.20;61.20;;;;;;4986720;28;86257;-50
2022/04/18 07:41:29;;;;;;;;;;;6.10;60.80;;;;;;4985359;28;88617;-49
2022/04/18 07:43:56;;;;;;;;;;;6.10;60.80;;;;;;4985784;28;86952;-49
2022/04/18 07:46:21;;;;;;;;;;;6.10;61.00;;;;;;4987908;28;87817;-49
2022/04/18 07:48:49;;;;;;;;;;;6.00;61.00;;;;;;4985985;28;86958;-50
2022/04/18 07:53:59;;;;;;;;;;;6.10;61.10;;;;;;4985511;28;87150;-50
2022/04/18 07:56:25;;;;;;;;;;;6.10;61.00;;;;;;4985621;28;86866;-50
2022/04/18 07:58:51;;;;;;;;;;;6.10;61.00;;;;;;4985918;28;87911;-51
2022/04/18 08:01:19;;;;;;;;;;;6.10;61.00;;;;;;4985247;28;88659;-50
2022/04/18 08:03:45;;;;;;;;;;;6.10;61.00;;;;;;4986380;28;86372;-50
2022/04/18 08:06:11;;;;;;;;;;;6.10;61.00;;;;;;4988371;28;87069;-49
2022/04/18 08:08:36;;;;;;;;;;;6.10;60.90;;;;;;4985431;28;86926;-50
2022/04/18 08:11:02;;;;;;;;;;;6.10;61.10;;;;;;4985047;28;87814;-51
2022/04/18 08:13:27;;;;;;;;;;;6.10;60.90;;;;;;4985372;28;87457;-50
2022/04/18 08:15:53;;;;;;;;;;;6.10;61.10;;;;;;4985666;28;86919;-50
2022/04/18 08:18:19;;;;;;;;;;;6.10;61.20;;;;;;4985466;28;88068;-49
2022/04/18 08:20:45;;;;;;;;;;;6.10;61.10;;;;;;4984347;28;87534;-50
2022/04/18 08:23:10;;;;;;;;;;;6.10;61.10;;;;;;4985372;28;86857;-49
2022/04/18 08:25:36;;;;;;;;;;;6.10;61.10;;;;;;4985481;28;88015;-50
2022/04/18 08:28:02;;;;;;;;;;;6.10;61.10;;;;;;4988476;28;86766;-50
2022/04/18 08:30:27;;;;;;;;;;;6.10;61.10;;;;;;4985094;28;86889;-51
2022/04/18 08:32:53;;;;;;;;;;;6.10;61.30;;;;;;4984826;28;88761;-50
2022/04/18 08:35:19;;;;;;;;;;;6.10;61.40;;;;;;4984659;28;87835;-52
2022/04/18 08:37:45;;;;;;;;;;;6.00;61.30;;;;;;4985139;28;88162;-50
2022/04/18 08:40:11;;;;;;;;;;;6.10;61.40;;;;;;4985132;28;87329;-49
2022/04/18 08:42:37;;;;;;;;;;;6.10;61.30;;;;;;4985426;28;86856;-52
2022/04/18 08:45:04;;;;;;;;;;;6.10;61.50;;;;;;4985407;28;86910;-50
2022/04/18 08:52:58;;;;;;;;;;;6.10;61.70;;;;;;4988694;28;86166;-49
2022/04/18 08:55:23;;;;;;;;;;;6.10;61.60;;;;;;4988168;28;86857;-50
2022/04/18 08:57:49;;;;;;;;;;;6.10;61.70;;;;;;4988508;28;87119;-50
2022/04/18 09:00:14;;;;;;;;;;;6.10;61.50;;;;;;4987380;28;88424;-51
2022/04/18 09:02:40;;;;;;;;;;;6.10;61.70;;;;;;4988694;28;87277;-50
2022/04/18 09:05:10;;;;;;;;;;;6.00;62.00;;;;;;4988441;28;86885;-49
2022/04/18 09:07:36;;;;;;;;;;;6.10;61.80;;;;;;4987772;28;88484;-51
2022/04/18 09:10:01;;;;;;;;;;;6.10;61.60;;;;;;4987909;28;86853;-53
2022/04/18 09:12:27;;;;;;;;;;;6.10;61.80;;;;;;4990345;28;87899;-51
2022/04/18 09:14:53;;;;;;;;;;;6.10;61.90;;;;;;4988278;28;86774;-50
2022/04/18 09:17:32;;;;;;;;;;;6.10;61.90;;;;;;4988680;28;86807;-50
2022/04/18 09:20:08;;;;;;;;;;;6.10;61.70;;;;;;4987415;28;87761;-50
2022/04/18 09:22:39;;;;;;;;;;;6.10;62.00;;;;;;4987926;28;86996;-49
2022/04/18 09:25:11;;;;;;;;;;;6.10;61.70;;;;;;4987450;28;87876;-52
2022/04/18 09:27:37;;;;;;;;;;;6.10;61.80;;;;;;4987597;28;88709;-49
2022/04/18 09:30:06;;;;;;;;;;;6.10;61.90;;;;;;4987610;28;86870;-50
2022/04/18 09:32:32;;;;;;;;;;;6.10;62.50;;;;;;4987393;28;87172;-49
2022/04/18 09:35:01;;;;;;;;;;;6.10;61.90;;;;;;4990126;28;88254;-49
2022/04/18 09:37:30;;;;;;;;;;;6.10;62.00;;;;;;4987266;28;87121;-49
2022/04/18 09:39:56;;;;;;;;;;;6.10;62.00;;;;;;4969655;28;90466;-50
2022/04/18 09:42:23;;;;;;;;;;;6.10;61.90;;;;;;4987869;28;86133;-49
2022/04/18 09:44:49;;;;;;;;;;;6.10;61.70;;;;;;4987492;28;87377;-50
2022/04/18 09:47:19;;;;;;;;;;;6.10;61.90;;;;;;4986975;28;88528;-50
2022/04/18 09:49:45;;;;;;;;;;;6.10;62.10;;;;;;4986790;28;87840;-49
2022/04/18 09:52:11;;;;;;;;;;;6.10;62.10;;;;;;4987249;28;88612;-49
2022/04/18 09:54:44;;;;;;;;;;;6.20;61.70;;;;;;4987163;28;87661;-50
2022/04/18 09:57:10;;;;;;;;;;;6.10;61.80;;;;;;4989942;28;86800;-50
2022/04/18 09:59:37;;;;;;;;;;;6.10;61.80;;;;;;4986492;28;87613;-51
2022/04/18 10:02:02;;;;;;;;;;;6.10;61.90;;;;;;4987062;28;86883;-50
2022/04/18 10:04:28;;;;;;;;;;;6.20;61.80;;;;;;5338350;22;89315;-49
2022/04/18 10:06:55;;;;;;;;;;;6.10;61.80;;;;;;5027041;28;87685;-49
2022/04/18 10:09:21;;;;;;;;;;;6.10;61.70;;;;;;5027047;28;86850;-49
2022/04/18 10:11:46;;;;;;;;;;;6.10;61.60;;;;;;5026784;28;87843;-51
2022/04/18 10:14:12;;;;;;;;;;;6.20;61.60;;;;;;5025939;28;89566;-51
2022/04/18 10:16:38;;;;;;;;;;;6.20;61.80;;;;;;5029821;28;86957;-50
2022/04/18 10:19:12;;;;;;;;;;;6.20;61.70;;;;;;5026772;28;87548;-49
2022/04/18 10:21:40;;;;;;;;;;;6.30;61.40;;;;;;5026872;28;86853;-49
2022/04/18 10:24:07;;;;;;;;;;;6.20;61.30;;;;;;5026934;28;88051;-50
2022/04/18 10:26:43;;;;;;;;;;;6.20;61.70;;;;;;5026243;28;88391;-51
2022/04/18 10:29:12;;;;;;;;;;;6.20;62.00;;;;;;5026698;28;86863;-50
2022/04/18 10:31:39;;;;;;;;;;;6.20;61.60;;;;;;5027137;28;88407;-50
2022/04/18 10:34:08;;;;;;;;;;;6.20;61.60;;;;;;5026635;28;86887;-51
2022/04/18 10:36:34;;;;;;;;;;;6.10;61.50;;;;;;5026858;28;87028;-50
2022/04/18 10:39:04;;;;;;;;;;;6.20;61.70;;;;;;5029025;28;87855;-49
2022/04/18 10:41:39;;;;;;;;;;;6.20;61.60;;;;;;5026480;28;86894;-49
2022/04/18 10:44:06;;;;;;;;;;;6.20;61.60;;;;;;5027091;28;87105;-49
2022/04/18 10:46:32;;;;;;;;;;;6.10;61.60;;;;;;5026103;28;88504;-50
2022/04/18 10:49:01;;;;;;;;;;;6.10;61.50;;;;;;5026504;28;86942;-49
2022/04/18 10:51:36;;;;;;;;;;;6.20;61.50;;;;;;5026800;28;86880;-50
2022/04/18 10:54:09;;;;;;;;;;;6.20;61.30;;;;;;5026474;28;87395;-49
2022/04/18 10:56:49;;;;;;;;;;;6.20;61.50;;;;;;5026822;28;86214;-49
2022/04/18 10:59:14;;;;;;;;;;;6.20;61.50;;;;;;5026723;28;87132;-49
2022/04/18 11:01:40;;;;;;;;;;;6.20;61.50;;;;;;5028983;28;87638;-49
2022/04/18 11:04:12;;;;;;;;;;;6.20;61.40;;;;;;5025601;28;88228;-49
2022/04/18 11:06:38;;;;;;;;;;;6.30;61.30;;;;;;5024948;28;88676;-52
2022/04/18 11:09:08;;;;;;;;;;;6.30;61.30;;;;;;5026346;28;86858;-50
2022/04/18 11:11:34;;;;;;;;;;;6.20;61.40;;;;;;5025185;28;87847;-50
2022/04/18 11:13:59;;;;;;;;;;;6.20;61.20;;;;;;5025823;28;88248;-49
2022/04/18 11:16:25;;;;;;;;;;;6.30;61.30;;;;;;5025906;28;87036;-49
2022/04/18 11:19:07;;;;;;;;;;;6.30;61.20;;;;;;5026139;28;87204;-49
2022/04/18 11:21:51;;;;;;;;;;;6.20;61.30;;;;;;5026258;28;86866;-50
2022/04/18 11:24:35;;;;;;;;;;;6.20;61.30;;;;;;5029051;28;86802;-49
2022/04/18 11:27:01;;;;;;;;;;;6.20;61.40;;;;;;5025729;28;86825;-52
2022/04/18 11:29:29;;;;;;;;;;;6.20;61.30;;;;;;5025439;28;87767;-49
2022/04/18 11:31:55;;;;;;;;;;;6.20;61.30;;;;;;5024803;28;87869;-51
2022/04/18 11:34:23;;;;;;;;;;;6.30;61.40;;;;;;5025876;28;87479;-49
2022/04/18 11:36:50;;;;;;;;;;;6.30;61.30;;;;;;5024997;28;86858;-51
2022/04/18 11:39:16;;;;;;;;;;;6.20;61.40;;;;;;5025721;28;87085;-49
2022/04/18 11:41:41;;;;;;;;;;;6.20;61.50;;;;;;5007571;28;90402;-49
2022/04/18 11:44:07;;;;;;;;;;;6.30;61.40;;;;;;5024242;28;86943;-52
2022/04/18 11:46:32;;;;;;;;;;;6.30;61.40;;;;;;5028984;28;86583;-50
2022/04/18 11:48:58;;;;;;;;;;;6.30;61.40;;;;;;5024298;28;86972;-49
2022/04/18 11:51:36;;;;;;;;;;;6.30;61.40;;;;;;5025864;28;86827;-50
2022/04/18 11:54:01;;;;;;;;;;;6.30;61.40;;;;;;5024633;28;88668;-49
2022/04/18 11:56:28;;;;;;;;;;;6.30;61.20;;;;;;5025896;28;87090;-49
2022/04/18 11:58:53;;;;;;;;;;;6.40;61.20;;;;;;5025905;28;86837;-50
2022/04/18 12:06:49;;;;;;;;;;;6.30;61.40;;;;;;5028933;28;86848;-49
2022/04/18 12:09:22;;;;;;;;;;;6.30;61.30;;;;;;5025449;28;86808;-49
2022/04/18 12:11:48;;;;;;;;;;;6.30;61.30;;;;;;5025888;28;86784;-50
2022/04/18 12:14:14;;;;;;;;;;;6.30;61.30;;;;;;5025058;28;87672;-50
2022/04/18 12:16:41;;;;;;;;;;;6.30;61.40;;;;;;5025392;28;86867;-50
2022/04/18 12:19:11;;;;;;;;;;;6.30;61.30;;;;;;5024788;28;87878;-52
2022/04/18 12:21:36;;;;;;;;;;;6.30;61.30;;;;;;5025794;28;86924;-49
2022/04/18 12:24:02;;;;;;;;;;;6.30;61.40;;;;;;5027702;28;87043;-50
2022/04/18 12:26:29;;;;;;;;;;;6.30;61.30;;;;;;5028898;28;87854;-49
2022/04/18 12:29:01;;;;;;;;;;;6.30;61.40;;;;;;5031606;28;87407;-50
2022/04/18 12:31:27;;;;;;;;;;;6.40;61.30;;;;;;5028522;28;87694;-49
2022/04/18 12:33:52;;;;;;;;;;;6.30;61.40;;;;;;5028433;28;88651;-50
2022/04/18 12:36:22;;;;;;;;;;;6.40;61.40;;;;;;5029490;28;86154;-49
2022/04/18 12:38:48;;;;;;;;;;;6.30;61.40;;;;;;5028727;28;87034;-49
2022/04/18 12:41:13;;;;;;;;;;;6.40;61.40;;;;;;5028151;28;87428;-50
2022/04/18 12:43:39;;;;;;;;;;;6.30;61.30;;;;;;5028156;28;87816;-49
2022/04/18 12:46:05;;;;;;;;;;;6.40;61.40;;;;;;5028433;28;88822;-50
2022/04/18 12:48:31;;;;;;;;;;;6.40;61.40;;;;;;5028102;28;88452;-49
2022/04/18 12:50:58;;;;;;;;;;;6.30;61.30;;;;;;5031636;28;86924;-51
2022/04/18 12:53:42;;;;;;;;;;;6.30;61.30;;;;;;5028021;28;88845;-49
2022/04/18 12:56:08;;;;;;;;;;;6.40;61.20;;;;;;5028738;28;86848;-51
2022/04/18 12:58:38;;;;;;;;;;;6.40;61.10;;;;;;5028319;28;87926;-51
2022/04/18 13:01:04;;;;;;;;;;;6.40;61.10;;;;;;5028361;28;86950;-49
2022/04/18 13:03:29;;;;;;;;;;;6.40;61.10;;;;;;5028487;28;87249;-49
2022/04/18 13:05:55;;;;;;;;;;;6.40;61.20;;;;;;5028123;28;88144;-49
2022/04/18 13:08:20;;;;;;;;;;;6.40;61.10;;;;;;5027489;28;88109;-49
2022/04/18 13:10:46;;;;;;;;;;;6.40;61.00;;;;;;5028256;28;86799;-50
2022/04/18 13:13:16;;;;;;;;;;;6.40;61.00;;;;;;5030798;28;86858;-52
2022/04/18 13:15:42;;;;;;;;;;;6.40;61.00;;;;;;5028445;28;86839;-50
2022/04/18 13:18:10;;;;;;;;;;;6.40;61.00;;;;;;5028275;28;86840;-51
2022/04/18 13:20:36;;;;;;;;;;;6.40;60.90;;;;;;5027857;28;87587;-50
2022/04/18 13:23:03;;;;;;;;;;;6.40;60.90;;;;;;5028265;28;86868;-50
2022/04/18 13:25:29;;;;;;;;;;;6.40;60.90;;;;;;5028429;28;87918;-50
2022/04/18 13:27:57;;;;;;;;;;;6.40;60.90;;;;;;5027653;28;88495;-49
2022/04/18 13:30:24;;;;;;;;;;;6.40;61.00;;;;;;5026411;28;86977;-50
2022/04/18 13:32:51;;;;;;;;;;;6.40;61.00;;;;;;5027239;28;88286;-50
2022/04/18 13:35:17;;;;;;;;;;;6.40;60.80;;;;;;5029846;28;87640;-50
2022/04/18 13:37:44;;;;;;;;;;;6.40;60.90;;;;;;5027608;28;87920;-50
2022/04/18 13:40:09;;;;;;;;;;;6.40;60.80;;;;;;5027302;28;88539;-49
2022/04/18 13:42:35;;;;;;;;;;;6.50;60.80;;;;;;5026452;28;86929;-49
2022/04/18 13:45:00;;;;;;;;;;;6.50;60.90;;;;;;5027643;28;87872;-49
2022/04/18 13:47:26;;;;;;;;;;;6.40;60.90;;;;;;5026633;28;87459;-51
2022/04/18 13:49:52;;;;;;;;;;;6.40;60.90;;;;;;5028269;28;86134;-51
2022/04/18 13:52:17;;;;;;;;;;;6.50;60.90;;;;;;5027626;28;87192;-49
2022/04/18 13:54:43;;;;;;;;;;;6.40;60.80;;;;;;5027328;28;87368;-49
2022/04/18 13:57:08;;;;;;;;;;;6.40;60.90;;;;;;5029878;28;88071;-50
2022/04/18 13:59:34;;;;;;;;;;;6.40;60.80;;;;;;5027050;28;88394;-49
2022/04/18 14:02:00;;;;;;;;;;;6.50;60.90;;;;;;5027546;28;86843;-49
2022/04/18 14:04:26;;;;;;;;;;;6.50;60.80;;;;;;5027082;28;88054;-49
2022/04/18 14:06:51;;;;;;;;;;;6.50;60.70;;;;;;5026891;28;88802;-51
2022/04/18 14:09:17;;;;;;;;;;;6.50;60.80;;;;;;5027313;28;86880;-49
2022/04/18 14:11:43;;;;;;;;;;;6.40;60.80;;;;;;5027048;28;86995;-50
2022/04/18 14:14:08;;;;;;;;;;;6.40;60.70;;;;;;5027253;28;87239;-50
2022/04/18 14:22:02;;;;;;;;;;;6.40;60.80;;;;;;5026728;28;87747;-50
2022/04/18 14:24:28;;;;;;;;;;;6.40;60.90;;;;;;5026929;28;88730;-51
2022/04/18 14:26:53;;;;;;;;;;;6.40;60.80;;;;;;5026778;28;86892;-50
2022/04/18 14:29:19;;;;;;;;;;;6.40;60.80;;;;;;5026883;28;86906;-49
2022/04/18 14:31:45;;;;;;;;;;;6.40;60.90;;;;;;5027001;28;86893;-49
2022/04/18 14:34:11;;;;;;;;;;;6.40;60.70;;;;;;5026537;28;88527;-49
2022/04/18 14:36:37;;;;;;;;;;;6.40;60.70;;;;;;5027042;28;86860;-49
2022/04/18 14:39:03;;;;;;;;;;;6.50;60.90;;;;;;5030008;28;86138;-49
2022/04/18 14:41:29;;;;;;;;;;;6.40;60.70;;;;;;5026728;28;86891;-49
2022/04/18 14:43:55;;;;;;;;;;;6.40;60.80;;;;;;5026942;28;86884;-50
2022/04/18 14:46:20;;;;;;;;;;;6.40;60.90;;;;;;5024982;28;88082;-52
2022/04/18 14:48:46;;;;;;;;;;;6.40;60.80;;;;;;5026829;28;86900;-49
2022/04/18 14:51:11;;;;;;;;;;;6.40;60.80;;;;;;5026800;28;86957;-51
2022/04/18 14:53:37;;;;;;;;;;;6.40;60.70;;;;;;5026444;28;87569;-49
2022/04/18 14:56:03;;;;;;;;;;;6.40;60.70;;;;;;5026658;28;86770;-53
2022/04/18 14:58:28;;;;;;;;;;;6.40;60.80;;;;;;5026377;28;87823;-51
2022/04/18 15:00:54;;;;;;;;;;;6.40;60.70;;;;;;5028606;28;87046;-51
2022/04/18 15:03:20;;;;;;;;;;;6.40;60.80;;;;;;5027286;28;86129;-53
2022/04/18 15:05:45;;;;;;;;;;;6.40;60.80;;;;;;5025838;28;88547;-51
2022/04/18 15:08:11;;;;;;;;;;;6.40;60.80;;;;;;5026933;28;86891;-51
2022/04/18 15:10:37;;;;;;;;;;;6.40;60.70;;;;;;5025786;28;88150;-51
2022/04/18 15:13:02;;;;;;;;;;;6.40;60.70;;;;;;5025857;28;87628;-51
2022/04/18 15:15:28;;;;;;;;;;;6.40;60.70;;;;;;5024923;28;86944;-52
2022/04/18 15:17:54;;;;;;;;;;;6.40;60.90;;;;;;5026149;28;87098;-51
2022/04/18 15:20:20;;;;;;;;;;;6.40;60.90;;;;;;5026192;28;88009;-54
2022/04/18 15:22:46;;;;;;;;;;;6.40;60.90;;;;;;5029642;28;86887;-53
2022/04/18 15:25:11;;;;;;;;;;;6.40;60.80;;;;;;5026160;28;88195;-50
2022/04/18 15:27:37;;;;;;;;;;;6.40;60.70;;;;;;5026561;28;86107;-51
2022/04/18 15:32:49;;;;;;;;;;;6.40;60.80;;;;;;5025784;28;87122;-51
2022/04/18 15:35:14;;;;;;;;;;;6.40;60.70;;;;;;5025617;28;88126;-52
2022/04/18 15:37:40;;;;;;;;;;;6.40;60.90;;;;;;5026298;28;87738;-49
2022/04/18 15:40:06;;;;;;;;;;;6.40;61.00;;;;;;5025422;28;88341;-50
2022/04/18 15:42:31;;;;;;;;;;;6.30;60.90;;;;;;5025809;28;86834;-51
2022/04/18 15:44:58;;;;;;;;;;;6.40;60.90;;;;;;5028209;28;87702;-51
2022/04/18 15:47:25;;;;;;;;;;;6.40;60.80;;;;;;5025650;28;86948;-50
2022/04/18 15:49:51;;;;;;;;;;;6.40;60.80;;;;;;5025782;28;87702;-52
2022/04/18 15:52:17;;;;;;;;;;;6.40;60.70;;;;;;5026097;28;86751;-50
2022/04/18 15:54:42;;;;;;;;;;;6.40;60.80;;;;;;5025871;28;87212;-49
2022/04/18 15:57:08;;;;;;;;;;;6.40;60.90;;;;;;5027227;28;86891;-50
2022/04/18 15:59:33;;;;;;;;;;;6.40;60.80;;;;;;5028163;28;89498;-49
2022/04/18 16:01:59;;;;;;;;;;;6.40;61.00;;;;;;5028168;28;86880;-51
2022/04/18 16:04:25;;;;;;;;;;;6.30;61.00;;;;;;5028782;28;88051;-49
2022/04/18 16:06:51;;;;;;;;;;;6.30;61.00;;;;;;5031639;28;87627;-50
2022/04/18 16:09:16;;;;;;;;;;;6.40;60.90;;;;;;5029275;28;87974;-50
2022/04/18 16:11:42;;;;;;;;;;;6.40;60.80;;;;;;5028508;28;89253;-50
2022/04/18 16:14:08;;;;;;;;;;;6.40;60.70;;;;;;5029530;28;86880;-50
2022/04/18 16:16:34;;;;;;;;;;;6.40;60.70;;;;;;5029761;28;86309;-53
2022/04/18 16:19:00;;;;;;;;;;;6.40;60.70;;;;;;5028889;28;88192;-50
2022/04/18 16:21:26;;;;;;;;;;;6.40;60.80;;;;;;5028928;28;87075;-51
2022/04/18 16:23:52;;;;;;;;;;;6.40;60.70;;;;;;5028449;28;87919;-50
2022/04/18 16:26:18;;;;;;;;;;;6.40;60.70;;;;;;5031660;28;87514;-50
2022/04/18 16:28:43;;;;;;;;;;;6.40;60.70;;;;;;5028679;28;87788;-50
2022/04/18 16:33:53;;;;;;;;;;;6.40;60.70;;;;;;5028810;28;86892;-49
2022/04/18 16:36:19;;;;;;;;;;;6.40;60.70;;;;;;5028503;28;86960;-49
2022/04/18 16:38:45;;;;;;;;;;;6.30;60.80;;;;;;5028499;28;87436;-50
2022/04/18 16:46:39;;;;;;;;;;;6.30;61.00;;;;;;5028357;28;87067;-50
2022/04/18 16:49:05;;;;;;;;;;;6.30;60.90;;;;;;5030680;28;87971;-53
2022/04/18 16:51:35;;;;;;;;;;;6.30;61.50;;;;;;5027975;28;88445;-50
2022/04/18 16:54:01;;;;;;;;;;;6.30;60.90;;;;;;5028458;28;86857;-50
2022/04/18 16:56:26;;;;;;;;;;;6.30;61.10;;;;;;5028523;28;87167;-50
2022/04/18 16:58:52;;;;;;;;;;;6.30;60.90;;;;;;5027882;28;87799;-51
2022/04/18 17:01:18;;;;;;;;;;;6.30;60.90;;;;;;5028175;28;86870;-50
2022/04/18 17:03:43;;;;;;;;;;;6.30;61.00;;;;;;5028421;28;86870;-49
2022/04/18 17:06:09;;;;;;;;;;;6.30;60.90;;;;;;5028168;28;86738;-49
2022/04/18 17:08:34;;;;;;;;;;;6.30;61.00;;;;;;5027045;28;86860;-49
2022/04/18 17:11:00;;;;;;;;;;;6.30;61.00;;;;;;5030481;28;87965;-50
2022/04/18 17:13:27;;;;;;;;;;;6.30;60.90;;;;;;5027492;28;87929;-49
2022/04/18 17:15:53;;;;;;;;;;;6.30;60.90;;;;;;5028241;28;87571;-50
2022/04/18 17:18:18;;;;;;;;;;;6.30;61.10;;;;;;5027534;28;87620;-49
2022/04/18 17:20:44;;;;;;;;;;;6.30;61.10;;;;;;5027889;28;86865;-49
2022/04/18 17:23:09;;;;;;;;;;;6.30;61.00;;;;;;5027850;28;87575;-50
2022/04/18 17:25:35;;;;;;;;;;;6.30;61.10;;;;;;5027451;28;88271;-49
2022/04/18 17:28:01;;;;;;;;;;;6.30;61.00;;;;;;5027774;28;86872;-50
2022/04/18 17:30:27;;;;;;;;;;;6.40;61.00;;;;;;5028317;28;88028;-50
2022/04/18 17:32:53;;;;;;;;;;;6.30;60.90;;;;;;5030153;28;87638;-50
2022/04/18 17:35:18;;;;;;;;;;;6.30;61.00;;;;;;5028100;28;87931;-49
2022/04/18 17:37:44;;;;;;;;;;;6.30;61.00;;;;;;5026930;28;87870;-50
2022/04/18 17:40:09;;;;;;;;;;;6.30;61.10;;;;;;5027769;28;87184;-49
2022/04/18 17:42:35;;;;;;;;;;;6.20;61.10;;;;;;5027550;28;87910;-51
2022/04/18 17:45:01;;;;;;;;;;;6.30;61.10;;;;;;5027508;28;87455;-50
2022/04/18 17:47:26;;;;;;;;;;;6.20;61.10;;;;;;5027429;28;86882;-51
2022/04/18 17:49:52;;;;;;;;;;;6.20;61.10;;;;;;5027863;28;87199;-49
2022/04/18 17:52:19;;;;;;;;;;;6.20;61.10;;;;;;5027278;28;86817;-49
2022/04/18 17:57:28;;;;;;;;;;;6.30;61.30;;;;;;5027145;28;87114;-50
2022/04/18 17:59:54;;;;;;;;;;;6.30;61.20;;;;;;5009739;28;86955;-49
2022/04/18 18:02:20;;;;;;;;;;;6.30;61.20;;;;;;5026703;28;87890;-49
2022/04/18 18:04:46;;;;;;;;;;;6.20;61.20;;;;;;5026635;28;87729;-50
2022/04/18 18:07:11;;;;;;;;;;;6.30;61.20;;;;;;5027485;28;87044;-53
2022/04/18 18:09:37;;;;;;;;;;;6.30;61.10;;;;;;5027175;28;87913;-51
2022/04/18 18:12:03;;;;;;;;;;;6.30;61.10;;;;;;5026690;28;88476;-49
2022/04/18 18:14:29;;;;;;;;;;;6.30;61.20;;;;;;5027127;28;86861;-51
2022/04/18 18:16:54;;;;;;;;;;;6.30;61.20;;;;;;5029778;28;88026;-52
2022/04/18 18:19:20;;;;;;;;;;;6.30;61.20;;;;;;5027335;28;86091;-51
2022/04/18 18:21:45;;;;;;;;;;;6.30;61.40;;;;;;5027528;28;87095;-49
2022/04/18 18:24:11;;;;;;;;;;;6.20;61.40;;;;;;5026503;28;88569;-51
2022/04/18 18:26:36;;;;;;;;;;;6.20;61.20;;;;;;5026497;28;88182;-49
2022/04/18 18:29:03;;;;;;;;;;;6.30;61.30;;;;;;5026770;28;88810;-50
2022/04/18 18:31:29;;;;;;;;;;;6.20;61.40;;;;;;5026363;28;88458;-50